Terminal Aerodrome Forecast
Issued by NWS Quad Cities IA IL

Home | Current Version | Previous Version | Text Only | Print | Product List | Glossary On
Versions: 1 2 3 4 5 6 7 8 9 10 11 12 13 14 15 16 17 18 19 20 21 22
896
FTUS43 KDVN 120310 AAA
TAFMLI
TAF AMD
KMLI 120310Z 1203/1224 VRB03KT P6SM OVC100
     FM120800 26004KT P6SM OVC040
     FM121100 28005KT P6SM -SN OVC025
     FM121500 30009KT P6SM OVC025
     FM121800 32014G22KT P6SM BKN050=

USA.gov is the U.S. government's official web portal to all federal, state and local government web resources and services.